createdAt,value
2022-09-25T00:00:59.552Z,32.67
2022-09-25T00:03:28.732Z,31.90
2022-09-25T00:06:11.298Z,33.40
2022-09-25T00:08:39.988Z,32.30
2022-09-25T00:11:09.979Z,32.30
2022-09-25T00:13:37.548Z,31.67
2022-09-25T00:16:05.012Z,30.38
2022-09-25T00:18:50.735Z,30.73
2022-09-25T00:21:18.021Z,30.67
2022-09-25T00:23:45.507Z,28.15
2022-09-25T00:26:14.470Z,29.40
2022-09-25T00:28:42.651Z,30.20
2022-09-25T00:31:10.941Z,29.67
2022-09-25T00:33:37.987Z,29.35
2022-09-25T00:36:10.558Z,29.20
2022-09-25T00:38:38.321Z,28.05
2022-09-25T00:41:07.001Z,29.60
2022-09-25T00:43:51.273Z,29.23
2022-09-25T00:46:29.671Z,27.90
2022-09-25T00:48:56.494Z,28.42
2022-09-25T00:51:29.666Z,26.60
2022-09-25T00:54:04.638Z,26.83
2022-09-25T00:56:37.683Z,26.30
2022-09-25T00:59:05.683Z,27.73
2022-09-25T01:01:32.433Z,28.33
2022-09-25T01:03:59.729Z,26.65
2022-09-25T01:06:27.158Z,28.10
2022-09-25T01:08:55.213Z,26.25
2022-09-25T01:11:22.013Z,26.00
2022-09-25T01:13:49.242Z,27.55
2022-09-25T01:16:24.048Z,25.40
2022-09-25T01:19:29.123Z,26.58
2022-09-25T01:21:55.679Z,25.05
2022-09-25T01:24:49.097Z,23.27
2022-09-25T01:27:35.922Z,25.23
2022-09-25T01:30:13.438Z,25.75
2022-09-25T01:33:00.586Z,25.35
2022-09-25T01:35:55.237Z,25.02
2022-09-25T01:38:25.212Z,24.70
2022-09-25T01:41:05.278Z,24.17
2022-09-25T01:43:40.522Z,24.20
2022-09-25T01:46:18.296Z,24.75
2022-09-25T01:48:50.280Z,23.63
2022-09-25T01:51:29.642Z,23.50
2022-09-25T01:54:02.798Z,22.92
2022-09-25T01:56:34.759Z,23.77
2022-09-25T01:59:14.534Z,21.33
2022-09-25T02:01:43.485Z,21.95
2022-09-25T02:04:26.170Z,21.73
2022-09-25T02:06:55.581Z,22.42
2022-09-25T02:09:29.466Z,22.92
2022-09-25T02:12:01.633Z,22.48
2022-09-25T02:14:35.101Z,22.17
2022-09-25T02:17:07.324Z,21.83
2022-09-25T02:19:52.617Z,21.65
2022-09-25T02:22:26.580Z,22.65
2022-09-25T02:24:59.293Z,22.27
2022-09-25T02:27:28.693Z,21.23
2022-09-25T02:29:57.493Z,20.52
2022-09-25T02:32:31.001Z,21.58
2022-09-25T02:34:59.849Z,20.88
2022-09-25T02:37:27.409Z,21.50
2022-09-25T02:39:58.044Z,21.40
2022-09-25T02:42:55.008Z,20.15
2022-09-25T02:45:34.249Z,19.80
2022-09-25T02:48:10.033Z,19.10
2022-09-25T02:51:04.021Z,18.20
2022-09-25T02:53:49.824Z,18.98
2022-09-25T02:56:28.768Z,17.02
2022-09-25T02:58:59.096Z,17.02
2022-09-25T03:01:29.027Z,16.90
2022-09-25T03:03:58.734Z,18.77
2022-09-25T03:06:26.453Z,18.13
2022-09-25T03:08:56.784Z,17.85
2022-09-25T03:11:26.909Z,18.05
2022-09-25T03:14:02.205Z,17.00
2022-09-25T03:16:47.953Z,17.75
2022-09-25T03:19:15.929Z,17.50
2022-09-25T03:21:42.788Z,17.17
2022-09-25T03:24:10.283Z,16.40
2022-09-25T03:26:37.008Z,16.42
2022-09-25T03:29:04.156Z,15.95
2022-09-25T03:31:31.402Z,16.77
2022-09-25T03:33:58.480Z,16.38
2022-09-25T03:36:27.452Z,17.00
2022-09-25T03:38:59.194Z,18.10
2022-09-25T03:41:34.509Z,17.48
2022-09-25T03:44:01.756Z,15.88
2022-09-25T03:46:33.973Z,16.42
2022-09-25T03:49:01.798Z,16.55
2022-09-25T03:51:30.445Z,16.33
2022-09-25T03:53:57.343Z,15.75
2022-09-25T03:56:26.534Z,16.08
2022-09-25T03:58:54.407Z,16.38
2022-09-25T04:01:22.695Z,15.38
2022-09-25T04:03:50.622Z,14.63
2022-09-25T04:06:20.245Z,16.63
2022-09-25T04:08:48.170Z,15.27
2022-09-25T04:11:16.559Z,17.00
2022-09-25T04:13:44.970Z,16.05
2022-09-25T04:16:13.832Z,16.20
2022-09-25T04:18:42.653Z,16.52
2022-09-25T04:21:11.631Z,16.05
2022-09-25T04:23:39.437Z,15.63
2022-09-25T04:26:07.670Z,15.50
2022-09-25T04:28:35.589Z,15.02
2022-09-25T04:31:03.667Z,14.60
2022-09-25T04:33:48.911Z,14.63
2022-09-25T04:36:16.912Z,14.95
2022-09-25T04:38:44.044Z,14.40
2022-09-25T04:41:11.170Z,13.65
2022-09-25T04:43:37.978Z,13.73
2022-09-25T04:46:07.500Z,14.00
2022-09-25T04:48:35.832Z,13.73
2022-09-25T04:51:05.701Z,13.82
2022-09-25T04:53:35.527Z,13.23
2022-09-25T04:56:05.336Z,12.40
2022-09-25T04:58:32.240Z,14.90
2022-09-25T05:01:09.172Z,13.82
2022-09-25T05:03:36.225Z,13.38
2022-09-25T05:06:03.217Z,13.05
2022-09-25T05:08:29.979Z,14.35
2022-09-25T05:10:56.663Z,14.05
2022-09-25T05:13:23.799Z,15.20
2022-09-25T05:15:51.203Z,13.98
2022-09-25T05:18:20.712Z,14.52
2022-09-25T05:20:48.580Z,13.68
2022-09-25T05:23:16.163Z,13.95
2022-09-25T05:25:43.047Z,14.13
2022-09-25T05:28:10.609Z,14.15
2022-09-25T05:30:38.814Z,14.25
2022-09-25T05:33:06.067Z,13.90
2022-09-25T05:35:33.685Z,14.30
2022-09-25T05:38:00.728Z,13.43
2022-09-25T05:40:27.737Z,14.32
2022-09-25T05:42:55.398Z,14.32
2022-09-25T05:45:25.999Z,13.40
2022-09-25T05:48:07.611Z,13.27
2022-09-25T05:50:34.686Z,13.90
2022-09-25T05:53:05.661Z,12.88
2022-09-25T05:55:32.463Z,14.05
2022-09-25T05:58:04.011Z,13.70
2022-09-25T06:00:32.929Z,13.35
2022-09-25T06:03:02.873Z,11.93
2022-09-25T06:05:30.187Z,13.82
2022-09-25T06:07:57.087Z,12.60
2022-09-25T06:10:26.043Z,13.65
2022-09-25T06:12:58.691Z,13.43
2022-09-25T06:15:27.718Z,13.40
2022-09-25T06:17:55.684Z,14.07
2022-09-25T06:20:22.726Z,13.25
2022-09-25T06:22:56.652Z,13.20
2022-09-25T06:25:29.263Z,12.70
2022-09-25T06:27:57.241Z,13.48
2022-09-25T06:30:27.493Z,12.73
2022-09-25T06:33:00.881Z,11.93
2022-09-25T06:35:29.265Z,11.75
2022-09-25T06:37:59.901Z,12.70
2022-09-25T06:40:28.393Z,13.63
2022-09-25T06:42:59.494Z,13.55
2022-09-25T06:45:27.908Z,13.15
2022-09-25T06:47:59.794Z,14.30
2022-09-25T06:50:31.866Z,15.25
2022-09-25T06:53:01.953Z,15.38
2022-09-25T06:55:32.320Z,14.63
2022-09-25T06:57:59.231Z,14.57
2022-09-25T07:00:26.134Z,13.98
2022-09-25T07:03:11.487Z,14.02
2022-09-25T07:05:38.320Z,14.07
2022-09-25T07:08:05.009Z,15.98
2022-09-25T07:10:31.641Z,13.98
2022-09-25T07:12:58.903Z,15.88
2022-09-25T07:15:25.577Z,14.50
2022-09-25T07:17:52.251Z,14.82
2022-09-25T07:20:19.159Z,15.10
2022-09-25T07:22:45.768Z,14.82
2022-09-25T07:25:14.221Z,15.02
2022-09-25T07:27:41.217Z,14.00
2022-09-25T07:30:08.801Z,14.27
2022-09-25T07:32:35.961Z,14.02
2022-09-25T07:35:03.371Z,14.07
2022-09-25T07:37:31.259Z,14.02
2022-09-25T07:39:57.958Z,15.05
2022-09-25T07:42:25.005Z,14.15
2022-09-25T07:44:51.975Z,13.93
2022-09-25T07:47:19.507Z,13.52
2022-09-25T07:49:46.896Z,15.82
2022-09-25T07:52:14.256Z,16.25
2022-09-25T07:54:41.033Z,16.13
2022-09-25T07:57:07.759Z,17.08
2022-09-25T07:59:34.428Z,17.45
2022-09-25T08:02:01.381Z,18.48
2022-09-25T08:04:28.157Z,18.88
2022-09-25T08:06:54.794Z,18.40
2022-09-25T08:09:21.488Z,19.45
2022-09-25T08:11:48.251Z,20.08
2022-09-25T08:14:15.749Z,19.77
2022-09-25T08:16:43.374Z,21.25
2022-09-25T08:19:13.921Z,19.60
2022-09-25T08:21:40.708Z,19.65
2022-09-25T08:24:07.606Z,19.50
2022-09-25T08:26:34.360Z,19.95
2022-09-25T08:29:01.171Z,19.90
2022-09-25T08:31:27.806Z,20.25
2022-09-25T08:33:54.631Z,20.92
2022-09-25T08:36:22.280Z,20.90
2022-09-25T08:38:49.344Z,19.17
2022-09-25T08:41:26.773Z,18.73
2022-09-25T08:44:05.308Z,18.13
2022-09-25T08:47:19.551Z,16.95
2022-09-25T08:50:05.024Z,16.02
2022-09-25T08:52:32.541Z,13.83
2022-09-25T08:54:59.251Z,14.35
2022-09-25T08:57:37.320Z,13.13
2022-09-25T09:00:18.024Z,13.68
2022-09-25T09:02:55.210Z,12.80
2022-09-25T09:05:37.366Z,11.65
2022-09-25T09:08:15.622Z,11.30
2022-09-25T09:10:57.805Z,10.98
2022-09-25T09:13:39.369Z,11.38
2022-09-25T09:16:27.302Z,11.48
2022-09-25T09:18:55.942Z,12.55
2022-09-25T09:21:36.707Z,11.38
2022-09-25T09:24:18.999Z,11.20
2022-09-25T09:26:54.305Z,12.32
2022-09-25T09:29:29.818Z,12.48
2022-09-25T09:35:05.686Z,13.07
2022-09-25T09:37:39.106Z,13.77
2022-09-25T09:40:25.866Z,13.70
2022-09-25T09:43:43.564Z,12.13
2022-09-25T09:46:25.512Z,13.70
2022-09-25T09:49:29.687Z,12.27
2022-09-25T09:52:11.585Z,14.48
2022-09-25T09:54:53.020Z,13.57
2022-09-25T09:57:24.626Z,13.25
2022-09-25T10:00:07.481Z,12.20
2022-09-25T10:02:42.219Z,13.35
2022-09-25T10:05:31.961Z,12.98
2022-09-25T10:07:58.932Z,12.73
2022-09-25T10:10:43.367Z,11.95
2022-09-25T10:13:36.226Z,11.55
2022-09-25T10:16:22.605Z,11.85
2022-09-25T10:19:05.814Z,11.55
2022-09-25T10:21:42.472Z,13.18
2022-09-25T10:24:09.401Z,10.93
2022-09-25T10:26:38.659Z,13.88
2022-09-25T10:29:26.812Z,14.40
2022-09-25T10:32:05.664Z,13.25
2022-09-25T10:34:33.081Z,13.38
2022-09-25T10:37:20.646Z,13.90
2022-09-25T10:40:02.514Z,13.88
2022-09-25T10:42:37.607Z,13.68
2022-09-25T10:45:22.679Z,13.90
2022-09-25T10:48:09.567Z,12.77
2022-09-25T10:50:39.419Z,14.02
2022-09-25T10:53:07.582Z,15.02
2022-09-25T10:55:46.425Z,14.30
2022-09-25T10:58:20.131Z,14.43
2022-09-25T11:00:46.884Z,14.25
2022-09-25T11:03:26.620Z,14.27
2022-09-25T11:06:03.808Z,15.10
2022-09-25T11:08:34.472Z,14.40
2022-09-25T11:11:02.973Z,16.05
2022-09-25T11:13:45.528Z,14.27
2022-09-25T11:16:12.598Z,13.75
2022-09-25T11:18:50.723Z,15.88
2022-09-25T11:21:40.004Z,15.23
2022-09-25T11:24:20.405Z,13.50
2022-09-25T11:26:58.523Z,13.57
2022-09-25T11:29:44.663Z,12.25
2022-09-25T11:32:32.015Z,12.07
2022-09-25T11:35:17.833Z,9.45
2022-09-25T11:40:29.831Z,11.00
2022-09-25T11:43:09.470Z,11.18
2022-09-25T11:45:54.983Z,9.32
2022-09-25T11:48:48.122Z,9.48
2022-09-25T11:51:35.978Z,9.15
2022-09-25T11:54:38.002Z,8.02
2022-09-25T11:57:38.012Z,7.68
2022-09-25T12:00:17.838Z,10.07
2022-09-25T12:02:56.624Z,9.02
2022-09-25T12:05:50.925Z,6.93
2022-09-25T12:08:50.416Z,7.25
2022-09-25T12:11:37.993Z,8.13
2022-09-25T12:14:10.723Z,8.65
2022-09-25T12:17:09.372Z,7.15
2022-09-25T12:19:56.329Z,5.68
2022-09-25T12:22:35.737Z,5.00
2022-09-25T12:25:11.473Z,4.63
2022-09-25T12:27:49.543Z,4.45
2022-09-25T12:30:25.489Z,6.70
2022-09-25T12:33:15.027Z,6.00
2022-09-25T12:36:05.214Z,6.43
2022-09-25T12:39:05.260Z,5.60
2022-09-25T12:41:50.270Z,5.13
2022-09-25T12:44:16.863Z,4.80
2022-09-25T12:46:49.833Z,3.30
2022-09-25T12:49:47.379Z,2.80
2022-09-25T12:52:20.186Z,3.88
2022-09-25T12:54:59.029Z,4.13
2022-09-25T12:57:37.295Z,3.30
2022-09-25T13:00:14.944Z,4.25
2022-09-25T13:03:00.787Z,4.10
2022-09-25T13:05:45.389Z,4.00
2022-09-25T13:08:24.292Z,3.45
2022-09-25T13:11:06.853Z,3.30
2022-09-25T13:13:45.420Z,3.40
2022-09-25T13:16:15.987Z,3.33
2022-09-25T13:19:09.589Z,3.10
2022-09-25T13:21:42.963Z,3.45
2022-09-25T13:24:15.444Z,3.00
2022-09-25T13:26:55.164Z,3.42
2022-09-25T13:29:41.243Z,3.33
2022-09-25T13:32:19.454Z,2.95
2022-09-25T13:34:46.757Z,3.50
2022-09-25T13:37:15.746Z,2.90
2022-09-25T13:40:08.054Z,3.70
2022-09-25T13:42:42.241Z,3.10
2022-09-25T13:45:29.856Z,3.55
2022-09-25T13:48:12.133Z,3.20
2022-09-25T13:50:41.218Z,3.35
2022-09-25T13:53:17.347Z,3.50
2022-09-25T13:55:50.196Z,3.00
2022-09-25T13:58:18.022Z,3.00
2022-09-25T14:00:53.655Z,2.75
2022-09-25T14:03:32.346Z,2.35
2022-09-25T14:06:00.730Z,2.83
2022-09-25T14:08:31.160Z,3.08
2022-09-25T14:11:01.761Z,3.30
2022-09-25T14:13:30.965Z,3.90
2022-09-25T14:16:00.531Z,3.63
2022-09-25T14:18:38.790Z,3.30
2022-09-25T14:21:09.805Z,3.03
2022-09-25T14:23:51.887Z,3.30
2022-09-25T14:26:26.486Z,3.65
2022-09-25T14:28:55.763Z,3.50
2022-09-25T14:31:31.943Z,3.95
2022-09-25T14:34:07.999Z,4.00
2022-09-25T14:36:43.552Z,4.70
2022-09-25T14:39:25.690Z,5.88
2022-09-25T14:41:55.758Z,5.50
2022-09-25T14:44:31.590Z,5.60
2022-09-25T14:46:58.963Z,5.63
2022-09-25T14:49:33.932Z,4.75
2022-09-25T14:52:04.619Z,5.82
2022-09-25T14:54:36.675Z,6.45
2022-09-25T14:57:05.926Z,6.60
2022-09-25T14:59:42.035Z,6.18
2022-09-25T15:02:16.102Z,6.30
2022-09-25T15:04:43.009Z,8.60
2022-09-25T15:07:16.907Z,7.75
2022-09-25T15:09:48.740Z,7.10
2022-09-25T15:12:30.560Z,6.18
2022-09-25T15:15:12.965Z,6.10
2022-09-25T15:17:57.761Z,5.90
2022-09-25T15:20:28.381Z,6.03
2022-09-25T15:22:59.567Z,6.57
2022-09-25T15:25:33.951Z,5.38
2022-09-25T15:28:04.453Z,6.25
2022-09-25T15:30:32.573Z,5.88
2022-09-25T15:33:01.072Z,5.20
2022-09-25T15:35:29.851Z,5.10
2022-09-25T15:38:10.736Z,6.03
2022-09-25T15:40:38.011Z,4.75
2022-09-25T15:43:12.617Z,4.72
2022-09-25T15:45:55.819Z,5.28
2022-09-25T15:48:22.856Z,5.00
2022-09-25T15:50:50.078Z,4.78
2022-09-25T15:53:28.092Z,4.32
2022-09-25T15:56:05.327Z,4.28
2022-09-25T15:58:51.336Z,3.70
2022-09-25T16:01:45.177Z,3.80
2022-09-25T16:04:40.074Z,4.57
2022-09-25T16:07:27.873Z,5.72
2022-09-25T16:09:58.155Z,5.25
2022-09-25T16:12:35.920Z,5.40
2022-09-25T16:15:29.885Z,5.40
2022-09-25T16:18:04.428Z,5.07
2022-09-25T16:20:38.466Z,4.88
2022-09-25T16:23:17.146Z,5.63
2022-09-25T16:25:45.268Z,5.50
2022-09-25T16:28:19.553Z,5.80
2022-09-25T16:31:04.936Z,5.90
2022-09-25T16:33:52.719Z,5.43
2022-09-25T16:36:19.660Z,5.70
2022-09-25T16:39:08.255Z,6.15
2022-09-25T16:41:54.108Z,5.60
2022-09-25T16:44:27.756Z,6.97
2022-09-25T16:47:00.512Z,5.95
2022-09-25T16:49:27.202Z,5.63
2022-09-25T16:51:55.234Z,5.97
2022-09-25T16:54:28.420Z,6.70
2022-09-25T16:56:58.499Z,6.38
2022-09-25T16:59:28.179Z,7.60
2022-09-25T17:01:58.975Z,7.00
2022-09-25T17:04:27.975Z,7.10
2022-09-25T17:06:57.945Z,6.93
2022-09-25T17:09:28.767Z,6.97
2022-09-25T17:12:20.279Z,6.95
2022-09-25T17:14:48.110Z,7.45
2022-09-25T17:17:18.941Z,7.40
2022-09-25T17:19:45.797Z,7.82
2022-09-25T17:22:13.109Z,8.05
2022-09-25T17:24:39.930Z,7.70
2022-09-25T17:27:16.615Z,6.85
2022-09-25T17:29:46.646Z,7.95
2022-09-25T17:32:15.193Z,7.38
2022-09-25T17:34:45.122Z,8.05
2022-09-25T17:37:12.102Z,8.73
2022-09-25T17:39:38.921Z,8.55
2022-09-25T17:42:05.870Z,9.00
2022-09-25T17:44:32.924Z,9.25
2022-09-25T17:47:00.942Z,8.65
2022-09-25T17:49:27.757Z,8.45
2022-09-25T17:51:56.712Z,8.15
2022-09-25T17:54:24.876Z,7.70
2022-09-25T17:56:51.608Z,7.57
2022-09-25T17:59:18.340Z,7.53
2022-09-25T18:01:46.721Z,7.72
2022-09-25T18:04:23.456Z,7.65
2022-09-25T18:06:50.469Z,7.30
2022-09-25T18:09:17.320Z,7.97
2022-09-25T18:11:44.994Z,8.20
2022-09-25T18:14:13.451Z,9.27
2022-09-25T18:16:42.387Z,8.02
2022-09-25T18:19:38.606Z,8.35
2022-09-25T18:22:18.786Z,7.93
2022-09-25T18:24:46.942Z,8.35
2022-09-25T18:27:15.714Z,8.93
2022-09-25T18:29:44.461Z,8.18
2022-09-25T18:32:11.760Z,10.70
2022-09-25T18:34:38.413Z,10.43
2022-09-25T18:37:05.148Z,11.10
2022-09-25T18:39:32.157Z,11.32
2022-09-25T18:41:58.791Z,10.30
2022-09-25T18:44:27.275Z,10.82
2022-09-25T18:46:54.727Z,10.35
2022-09-25T18:49:23.739Z,10.68
2022-09-25T18:51:52.121Z,9.60
2022-09-25T18:54:19.701Z,9.32
2022-09-25T18:56:46.608Z,9.70
2022-09-25T18:59:15.396Z,9.77
2022-09-25T19:01:42.468Z,9.70
2022-09-25T19:04:17.369Z,10.32
2022-09-25T19:06:45.942Z,10.13
2022-09-25T19:09:17.011Z,11.63
2022-09-25T19:11:47.016Z,12.27
2022-09-25T19:14:16.480Z,11.70
2022-09-25T19:16:43.695Z,10.77
2022-09-25T19:19:13.117Z,10.57
2022-09-25T19:21:42.670Z,10.52
2022-09-25T19:24:09.740Z,11.43
2022-09-25T19:26:36.938Z,11.13
2022-09-25T19:29:05.196Z,10.63
2022-09-25T19:31:31.986Z,10.93
2022-09-25T19:34:00.945Z,12.55
2022-09-25T19:36:34.083Z,12.73
2022-09-25T19:39:01.482Z,12.45
2022-09-25T19:41:30.443Z,11.93
2022-09-25T19:43:59.382Z,11.23
2022-09-25T19:46:29.049Z,11.70
2022-09-25T19:48:55.918Z,11.70
2022-09-25T19:51:27.685Z,12.25
2022-09-25T19:53:54.760Z,12.20
2022-09-25T19:56:23.160Z,11.98
2022-09-25T19:58:52.783Z,11.52
2022-09-25T20:01:31.833Z,12.57
2022-09-25T20:03:59.006Z,11.23
2022-09-25T20:06:28.727Z,11.32
2022-09-25T20:09:03.013Z,11.95
2022-09-25T20:11:31.211Z,11.10
2022-09-25T20:14:00.338Z,10.85
2022-09-25T20:16:29.566Z,11.25
2022-09-25T20:19:00.160Z,11.00
2022-09-25T20:21:31.763Z,11.90
2022-09-25T20:24:00.335Z,11.50
2022-09-25T20:26:28.004Z,12.23
2022-09-25T20:29:00.008Z,11.05
2022-09-25T20:31:30.176Z,10.98
2022-09-25T20:33:57.236Z,11.43
2022-09-25T20:36:24.780Z,12.05
2022-09-25T20:39:00.614Z,12.90
2022-09-25T20:41:27.486Z,11.52
2022-09-25T20:43:58.132Z,12.18
2022-09-25T20:46:28.081Z,11.77
2022-09-25T20:48:59.128Z,12.35
2022-09-25T20:51:29.650Z,12.02
2022-09-25T20:54:16.640Z,12.60
2022-09-25T20:56:43.855Z,13.70
2022-09-25T20:59:15.344Z,14.27
2022-09-25T21:01:42.347Z,14.05
2022-09-25T21:04:09.962Z,14.60
2022-09-25T21:06:38.900Z,13.52
2022-09-25T21:09:09.350Z,13.85
2022-09-25T21:11:37.530Z,13.00
2022-09-25T21:14:04.346Z,14.07
2022-09-25T21:16:34.681Z,14.40
2022-09-25T21:19:04.724Z,14.93
2022-09-25T21:21:34.815Z,12.90
2022-09-25T21:24:03.795Z,13.85
2022-09-25T21:26:31.671Z,13.90
2022-09-25T21:29:05.183Z,14.05
2022-09-25T21:31:35.339Z,13.98
2022-09-25T21:34:02.227Z,14.93
2022-09-25T21:36:30.274Z,13.45
2022-09-25T21:38:58.164Z,14.38
2022-09-25T21:41:27.628Z,13.77
2022-09-25T21:43:56.796Z,14.90
2022-09-25T21:46:24.724Z,14.77
2022-09-25T21:48:59.892Z,14.98
2022-09-25T21:51:30.200Z,15.02
2022-09-25T21:53:56.919Z,15.50
2022-09-25T21:56:26.289Z,16.00
2022-09-25T21:58:55.209Z,16.67
2022-09-25T22:01:32.356Z,15.73
2022-09-25T22:04:00.031Z,14.93
2022-09-25T22:06:29.785Z,18.23
2022-09-25T22:08:59.075Z,15.05
2022-09-25T22:11:27.059Z,15.38
2022-09-25T22:13:57.489Z,15.20
2022-09-25T22:16:30.371Z,15.18
2022-09-25T22:19:00.242Z,16.17
2022-09-25T22:21:30.404Z,15.65
2022-09-25T22:23:57.751Z,15.68
2022-09-25T22:26:25.523Z,16.25
2022-09-25T22:28:52.611Z,15.18
2022-09-25T22:31:25.801Z,15.68
2022-09-25T22:34:07.129Z,16.52
2022-09-25T22:36:36.323Z,15.80
2022-09-25T22:39:06.393Z,15.90
2022-09-25T22:41:33.549Z,15.15
2022-09-25T22:44:01.105Z,15.73
2022-09-25T22:46:28.680Z,15.38
2022-09-25T22:48:55.792Z,15.07
2022-09-25T22:51:24.832Z,15.38
2022-09-25T22:53:52.996Z,17.73
2022-09-25T22:56:29.192Z,16.27
2022-09-25T22:58:59.879Z,14.95
2022-09-25T23:01:29.105Z,14.88
2022-09-25T23:04:02.070Z,14.32
2022-09-25T23:06:30.525Z,14.93
2022-09-25T23:09:04.016Z,15.13
2022-09-25T23:11:31.367Z,16.10
2022-09-25T23:14:04.266Z,16.15
2022-09-25T23:16:32.332Z,16.25
2022-09-25T23:19:00.545Z,15.52
2022-09-25T23:21:29.366Z,16.45
2022-09-25T23:23:57.680Z,16.35
2022-09-25T23:26:25.277Z,17.08
2022-09-25T23:28:52.382Z,17.33
2022-09-25T23:31:19.478Z,15.75
2022-09-25T23:33:46.737Z,17.35
2022-09-25T23:36:20.325Z,15.57
2022-09-25T23:38:48.336Z,16.02
2022-09-25T23:41:24.943Z,16.45
2022-09-25T23:43:52.730Z,15.32
2022-09-25T23:46:21.724Z,15.40
2022-09-25T23:48:49.233Z,14.57
2022-09-25T23:51:17.645Z,15.30
2022-09-25T23:53:44.745Z,16.05
2022-09-25T23:56:15.004Z,15.30
2022-09-25T23:58:42.382Z,15.13
